Time;durP1;ratioP1;P1;durP2;ratioP2;P2;SDS_P1;SDS_P2;PMS_P1;PMS_P2;Temp;Humidity;BMP_temperature;BMP_pressure;BME280_temperature;BME280_humidity;BME280_pressure;Samples;Min_cycle;Max_cycle;Signal;HPM_P1;HPM_P2
2022/01/11 00:01:14;;;;;;;18.17;11.23;;;2.00;99.90;;;;;;4982957;28;20421;-76
2022/01/11 00:03:41;;;;;;;9.23;8.37;;;2.00;99.90;;;;;;4984103;28;20038;-77
2022/01/11 00:06:29;;;;;;;10.03;9.13;;;2.00;99.90;;;;;;4981028;28;20100;-76
2022/01/11 00:09:00;;;;;;;16.60;9.63;;;2.10;99.90;;;;;;4999270;28;20042;-76
2022/01/11 00:11:26;;;;;;;13.97;10.97;;;2.00;99.90;;;;;;4991888;28;20041;-77
2022/01/11 00:13:52;;;;;;;8.73;8.03;;;2.10;99.90;;;;;;4984169;28;20112;-76
2022/01/11 00:16:17;;;;;;;10.00;9.10;;;2.10;99.90;;;;;;5000968;28;20041;-77
2022/01/11 00:18:43;;;;;;;11.00;7.27;;;2.00;99.90;;;;;;5003563;28;20042;-77
2022/01/11 00:21:09;;;;;;;10.20;8.13;;;2.00;99.90;;;;;;4984543;28;20054;-74
2022/01/11 00:26:01;;;;;;;9.73;8.83;;;2.00;99.90;;;;;;5001869;28;20046;-74
2022/01/11 00:28:27;;;;;;;10.90;9.87;;;2.00;99.90;;;;;;4997428;28;20566;-74
2022/01/11 00:30:54;;;;;;;11.50;8.43;;;2.00;99.90;;;;;;5019811;28;20480;-74
2022/01/11 00:33:32;;;;;;;20.57;8.73;;;2.00;99.90;;;;;;5021042;28;20069;-74
2022/01/11 00:35:59;;;;;;;11.93;6.00;;;2.00;99.90;;;;;;5020953;28;20045;-74
2022/01/11 00:38:31;;;;;;;11.63;9.37;;;2.00;99.90;;;;;;5020385;28;20049;-74
2022/01/11 00:40:59;;;;;;;9.65;8.77;;;2.00;99.90;;;;;;5003510;28;20472;-74
2022/01/11 00:43:27;;;;;;;13.47;10.30;;;1.90;99.90;;;;;;5021274;28;20037;-74
2022/01/11 00:45:57;;;;;;;9.93;8.43;;;1.90;99.90;;;;;;5001901;28;20065;-74
2022/01/11 00:48:23;;;;;;;10.90;7.67;;;1.90;99.90;;;;;;5001136;28;20092;-74
2022/01/11 00:50:50;;;;;;;9.00;8.20;;;1.90;99.90;;;;;;5001528;28;20046;-74
2022/01/11 00:53:18;;;;;;;10.70;9.30;;;1.90;99.90;;;;;;5000594;28;20049;-74
2022/01/11 00:55:44;;;;;;;6.87;6.37;;;1.90;99.90;;;;;;4984456;28;20404;-74
2022/01/11 00:58:10;;;;;;;7.83;7.10;;;1.90;99.90;;;;;;5001896;28;20053;-74
2022/01/11 01:00:38;;;;;;;8.47;7.87;;;1.90;99.90;;;;;;4992431;28;20048;-74
2022/01/11 01:03:04;;;;;;;17.70;7.73;;;1.90;99.90;;;;;;5020859;28;20049;-74
2022/01/11 01:05:30;;;;;;;9.13;7.53;;;1.90;99.90;;;;;;5002764;28;20049;-74
2022/01/11 01:07:56;;;;;;;11.73;5.40;;;1.90;99.90;;;;;;5019797;28;20042;-74
2022/01/11 01:10:35;;;;;;;11.07;7.80;;;1.90;99.90;;;;;;5020508;28;20057;-74
2022/01/11 01:13:04;;;;;;;14.90;9.40;;;1.80;99.90;;;;;;5020806;28;20049;-74
2022/01/11 01:15:30;;;;;;;25.23;8.83;;;1.80;99.90;;;;;;5020695;28;20057;-74
2022/01/11 01:17:56;;;;;;;8.17;7.47;;;1.80;99.90;;;;;;4995514;28;20041;-74
2022/01/11 01:20:22;;;;;;;7.93;7.13;;;1.80;99.90;;;;;;5000576;28;20079;-74
2022/01/11 01:22:50;;;;;;;8.70;7.03;;;1.80;99.90;;;;;;4982863;28;20057;-75
2022/01/11 01:25:20;;;;;;;10.67;9.50;;;1.80;99.90;;;;;;4983442;28;20045;-74
2022/01/11 01:27:47;;;;;;;11.53;6.90;;;1.80;99.90;;;;;;4983755;28;20504;-73
2022/01/11 01:30:13;;;;;;;6.73;6.07;;;1.90;99.90;;;;;;5011048;28;20042;-73
2022/01/11 01:32:38;;;;;;;9.33;7.60;;;1.90;99.90;;;;;;5003137;28;20048;-74
2022/01/11 01:35:05;;;;;;;10.43;6.60;;;1.90;99.90;;;;;;5003190;28;20622;-74
2022/01/11 01:37:31;;;;;;;9.33;8.43;;;1.90;99.90;;;;;;5012935;28;20046;-74
2022/01/11 01:39:57;;;;;;;8.13;7.43;;;1.90;99.90;;;;;;5003156;28;20096;-74
2022/01/11 01:42:27;;;;;;;7.80;6.93;;;1.90;99.90;;;;;;5005022;28;20050;-74
2022/01/11 01:44:53;;;;;;;11.53;7.93;;;1.90;99.90;;;;;;5004699;28;20045;-74
2022/01/11 01:47:19;;;;;;;10.43;6.97;;;1.90;99.90;;;;;;5004454;28;20451;-74
2022/01/11 01:49:45;;;;;;;7.37;6.67;;;1.90;99.90;;;;;;5003861;28;20409;-74
2022/01/11 01:52:13;;;;;;;9.00;7.43;;;1.90;99.90;;;;;;5002458;28;20073;-74
2022/01/11 01:54:40;;;;;;;11.73;7.40;;;1.90;99.90;;;;;;5002123;28;20045;-74
2022/01/11 01:57:06;;;;;;;11.10;9.47;;;1.90;99.90;;;;;;5003810;28;20484;-74
2022/01/11 01:59:32;;;;;;;21.27;7.77;;;1.80;99.90;;;;;;5006616;28;20057;-74
2022/01/11 02:01:58;;;;;;;25.97;7.87;;;1.80;99.90;;;;;;5049304;22;20151;-77
2022/01/11 02:04:24;;;;;;;9.27;8.47;;;1.80;99.90;;;;;;5043881;28;20459;-77
2022/01/11 02:06:50;;;;;;;15.77;7.33;;;1.90;99.90;;;;;;5043533;28;20044;-77
2022/01/11 02:09:16;;;;;;;9.80;8.63;;;1.80;99.90;;;;;;5044509;28;20045;-77
2022/01/11 02:11:42;;;;;;;7.77;7.10;;;1.90;99.90;;;;;;5044160;28;20047;-77
2022/01/11 02:14:08;;;;;;;11.73;8.40;;;1.80;99.90;;;;;;5043781;28;20041;-77
2022/01/11 02:16:34;;;;;;;6.23;5.63;;;1.90;99.90;;;;;;5050680;28;20036;-78
2022/01/11 02:19:00;;;;;;;15.13;8.67;;;1.80;99.90;;;;;;5064083;28;20032;-77
2022/01/11 02:21:26;;;;;;;12.10;6.87;;;1.90;99.90;;;;;;5062785;28;20033;-78
2022/01/11 02:23:52;;;;;;;6.63;6.03;;;1.80;99.90;;;;;;5063761;28;20036;-78
2022/01/11 02:26:18;;;;;;;11.53;9.57;;;1.80;99.90;;;;;;5045648;28;20051;-78
2022/01/11 02:28:43;;;;;;;13.67;7.07;;;1.80;99.90;;;;;;5063662;28;20044;-77
2022/01/11 02:31:12;;;;;;;14.67;6.87;;;1.80;99.90;;;;;;5050324;28;20067;-77
2022/01/11 02:33:44;;;;;;;10.03;9.13;;;1.80;99.90;;;;;;5063134;28;20048;-77
2022/01/11 02:36:19;;;;;;;9.00;7.90;;;1.80;99.90;;;;;;5042144;28;20040;-77
2022/01/11 02:38:46;;;;;;;11.97;7.57;;;1.80;99.90;;;;;;5046264;28;20380;-77
2022/01/11 02:41:12;;;;;;;9.10;7.77;;;1.80;99.90;;;;;;5063575;28;20029;-77
2022/01/11 02:43:42;;;;;;;7.90;7.00;;;1.80;99.90;;;;;;5063311;28;20048;-77
2022/01/11 02:46:08;;;;;;;14.40;7.63;;;1.80;99.90;;;;;;5063585;28;20078;-77
2022/01/11 02:48:33;;;;;;;10.40;7.83;;;1.80;99.90;;;;;;5063170;28;20118;-77
2022/01/11 02:50:59;;;;;;;12.13;7.83;;;1.80;99.90;;;;;;5056894;28;20037;-77
2022/01/11 02:53:24;;;;;;;11.90;6.60;;;1.80;99.90;;;;;;5041764;28;20053;-78
2022/01/11 02:55:50;;;;;;;10.57;6.53;;;1.80;99.90;;;;;;5043128;28;20041;-77
2022/01/11 02:58:16;;;;;;;15.07;9.80;;;1.80;99.90;;;;;;5043586;28;20041;-77
2022/01/11 03:00:42;;;;;;;7.40;6.70;;;1.80;99.90;;;;;;5043262;28;20554;-77
2022/01/11 03:03:17;;;;;;;8.90;7.77;;;1.80;99.90;;;;;;5025181;28;20052;-77
2022/01/11 03:05:49;;;;;;;15.70;7.90;;;1.80;99.90;;;;;;5025386;28;20041;-77
2022/01/11 03:08:16;;;;;;;9.48;8.57;;;1.80;99.90;;;;;;5024505;28;20037;-77
2022/01/11 03:10:41;;;;;;;11.50;7.63;;;1.80;99.90;;;;;;5042750;28;20037;-77
2022/01/11 03:13:09;;;;;;;8.77;6.73;;;1.80;99.90;;;;;;5042770;28;20041;-77
2022/01/11 03:15:36;;;;;;;8.27;7.57;;;1.80;99.90;;;;;;5045100;28;20036;-77
2022/01/11 03:18:04;;;;;;;10.27;7.00;;;1.80;99.90;;;;;;5044795;28;20040;-77
2022/01/11 03:20:30;;;;;;;12.20;7.80;;;1.80;99.90;;;;;;5062347;28;20044;-77
2022/01/11 03:22:55;;;;;;;14.20;7.70;;;1.80;99.90;;;;;;5061685;28;20055;-77
2022/01/11 03:25:21;;;;;;;8.93;7.40;;;1.80;99.90;;;;;;5044442;28;20040;-77
2022/01/11 03:27:48;;;;;;;10.33;9.40;;;1.80;99.90;;;;;;5044708;28;20088;-77
2022/01/11 03:30:14;;;;;;;9.63;8.40;;;1.80;99.90;;;;;;5052480;28;20029;-77
2022/01/11 03:32:39;;;;;;;7.13;6.47;;;1.80;99.90;;;;;;5023892;28;20044;-77
2022/01/11 03:35:07;;;;;;;18.90;10.00;;;1.90;99.90;;;;;;5042432;28;20815;-77
2022/01/11 03:37:32;;;;;;;10.47;6.93;;;1.80;99.90;;;;;;5040637;28;20089;-77
2022/01/11 03:39:58;;;;;;;10.83;9.73;;;1.80;99.90;;;;;;5024577;28;20483;-77
2022/01/11 03:42:24;;;;;;;21.03;9.57;;;1.80;99.90;;;;;;5042382;28;20033;-78
2022/01/11 03:44:50;;;;;;;11.43;10.20;;;1.90;99.90;;;;;;5024058;28;20485;-77
2022/01/11 03:47:17;;;;;;;12.97;9.23;;;1.90;99.90;;;;;;5058542;28;20127;-77
2022/01/11 03:49:43;;;;;;;10.50;9.60;;;1.90;99.90;;;;;;5062350;28;20115;-77
2022/01/11 03:52:09;;;;;;;10.07;7.43;;;1.80;99.90;;;;;;5060667;28;20616;-78
2022/01/11 03:57:18;;;;;;;24.57;10.07;;;1.80;99.90;;;;;;5043610;28;20052;-78
2022/01/11 03:59:44;;;;;;;9.60;8.60;;;1.70;99.90;;;;;;5044476;28;20549;-78
2022/01/11 04:02:10;;;;;;;8.20;7.40;;;1.70;99.90;;;;;;5061060;28;20053;-77
2022/01/11 04:04:35;;;;;;;14.50;9.57;;;1.70;99.90;;;;;;5043685;28;20052;-77
2022/01/11 04:07:01;;;;;;;15.90;9.77;;;1.70;99.90;;;;;;5042246;28;20035;-77
2022/01/11 04:09:27;;;;;;;10.27;8.57;;;1.70;99.90;;;;;;5043375;28;20455;-78
2022/01/11 04:11:53;;;;;;;12.40;10.07;;;1.70;99.90;;;;;;5047170;28;20041;-77
2022/01/11 04:14:18;;;;;;;11.13;9.40;;;1.70;99.90;;;;;;5041599;28;20049;-78
2022/01/11 04:16:44;;;;;;;8.10;7.40;;;1.70;99.90;;;;;;5023925;28;20037;-77
2022/01/11 04:19:09;;;;;;;9.67;7.47;;;1.70;99.90;;;;;;5041768;28;20049;-78
2022/01/11 04:21:35;;;;;;;29.00;8.97;;;1.70;99.90;;;;;;5022286;28;20155;-77
2022/01/11 04:24:02;;;;;;;12.67;9.83;;;1.70;99.90;;;;;;5023298;28;20048;-78
2022/01/11 04:26:28;;;;;;;7.10;6.50;;;1.70;99.90;;;;;;5040933;28;20684;-78
2022/01/11 04:28:53;;;;;;;13.57;10.23;;;1.70;99.90;;;;;;5041338;28;20052;-78
2022/01/11 04:31:19;;;;;;;10.70;9.27;;;1.70;99.90;;;;;;5041147;28;20068;-78
2022/01/11 04:33:45;;;;;;;12.63;8.43;;;1.60;99.90;;;;;;5041708;28;20127;-78
2022/01/11 04:36:11;;;;;;;8.90;6.63;;;1.60;99.90;;;;;;5039948;28;20044;-77
2022/01/11 04:38:37;;;;;;;11.37;10.33;;;1.60;99.90;;;;;;5040904;28;20048;-78
2022/01/11 04:41:03;;;;;;;9.60;8.57;;;1.60;99.90;;;;;;5048313;28;20053;-77
2022/01/11 04:43:30;;;;;;;16.37;10.43;;;1.60;99.90;;;;;;5060609;28;20040;-78
2022/01/11 04:45:56;;;;;;;11.60;8.57;;;1.60;99.90;;;;;;5060053;28;20113;-78
2022/01/11 04:48:22;;;;;;;9.30;8.40;;;1.60;99.90;;;;;;5060458;28;20478;-78
2022/01/11 04:50:48;;;;;;;8.83;7.77;;;1.60;99.90;;;;;;5060047;28;20032;-78
2022/01/11 04:53:13;;;;;;;10.73;9.73;;;1.70;99.90;;;;;;5043427;28;20138;-78
2022/01/11 04:55:39;;;;;;;11.40;8.23;;;1.60;99.90;;;;;;5042701;28;20482;-77
2022/01/11 04:58:04;;;;;;;8.33;7.13;;;1.70;99.90;;;;;;5060838;28;20040;-78
2022/01/11 05:00:30;;;;;;;17.27;8.53;;;1.70;99.90;;;;;;5060768;28;20075;-78
2022/01/11 05:02:57;;;;;;;11.90;9.53;;;1.70;99.90;;;;;;5042407;28;20480;-78
2022/01/11 05:05:24;;;;;;;9.47;8.57;;;1.70;99.90;;;;;;5057207;28;20045;-77
2022/01/11 05:07:50;;;;;;;9.23;8.33;;;1.70;99.90;;;;;;5022171;28;20037;-77
2022/01/11 05:10:16;;;;;;;10.00;8.33;;;1.80;99.90;;;;;;5041265;28;20037;-77
2022/01/11 05:12:41;;;;;;;17.93;10.07;;;1.80;99.90;;;;;;5041200;28;20045;-77
2022/01/11 05:15:11;;;;;;;13.67;9.50;;;1.80;99.90;;;;;;5042988;28;20052;-77
2022/01/11 05:17:38;;;;;;;9.23;8.27;;;1.80;99.90;;;;;;5044880;28;20037;-77
2022/01/11 05:20:06;;;;;;;13.87;10.37;;;1.80;99.90;;;;;;5044926;28;20098;-77
2022/01/11 05:22:31;;;;;;;6.30;5.77;;;1.80;99.90;;;;;;5043287;28;20124;-78
2022/01/11 05:24:57;;;;;;;18.10;11.20;;;1.80;99.90;;;;;;5044892;28;20151;-77
2022/01/11 05:27:23;;;;;;;13.57;9.07;;;1.80;99.90;;;;;;5044085;28;20064;-78
2022/01/11 05:29:49;;;;;;;15.10;8.40;;;1.80;99.90;;;;;;5046845;28;20560;-78
2022/01/11 05:32:14;;;;;;;16.90;8.43;;;1.80;99.90;;;;;;5045134;28;20105;-77
2022/01/11 05:34:40;;;;;;;10.97;8.80;;;1.80;99.90;;;;;;5044161;28;20049;-78
2022/01/11 05:37:06;;;;;;;13.00;9.37;;;1.80;99.90;;;;;;5025870;28;20923;-77
2022/01/11 05:39:31;;;;;;;13.83;8.47;;;1.80;99.90;;;;;;5026195;28;20455;-78
2022/01/11 05:41:59;;;;;;;11.07;10.07;;;1.80;99.90;;;;;;5060895;28;20041;-77
2022/01/11 05:44:24;;;;;;;9.77;8.87;;;1.80;99.90;;;;;;5044088;28;20037;-78
2022/01/11 05:46:50;;;;;;;10.87;8.47;;;1.80;99.90;;;;;;5044493;28;20044;-79
2022/01/11 05:49:16;;;;;;;9.40;8.60;;;1.80;99.90;;;;;;5044817;28;20542;-78
2022/01/11 05:51:41;;;;;;;26.67;7.80;;;1.80;99.90;;;;;;5043872;28;20044;-78
2022/01/11 05:54:08;;;;;;;15.93;11.10;;;1.80;99.90;;;;;;5047425;28;20098;-78
2022/01/11 05:56:34;;;;;;;18.70;9.53;;;1.80;99.90;;;;;;5024023;28;20083;-78
2022/01/11 05:58:59;;;;;;;16.73;11.07;;;1.80;99.90;;;;;;5006479;28;20379;-78
2022/01/11 06:01:25;;;;;;;17.63;10.50;;;1.80;99.90;;;;;;5023507;28;20128;-78
2022/01/11 06:03:50;;;;;;;28.90;9.07;;;1.80;99.90;;;;;;5024388;28;20045;-78
2022/01/11 06:06:16;;;;;;;24.00;11.63;;;1.80;99.90;;;;;;5023728;28;20558;-78
2022/01/11 06:08:42;;;;;;;16.00;8.37;;;1.80;99.90;;;;;;5024685;28;20041;-78
2022/01/11 06:11:07;;;;;;;14.63;9.77;;;1.80;99.90;;;;;;5064102;28;20095;-78
2022/01/11 06:13:33;;;;;;;11.23;7.93;;;1.70;99.90;;;;;;5044050;28;20040;-78
2022/01/11 06:15:59;;;;;;;10.57;7.10;;;1.70;99.90;;;;;;5025934;28;20040;-78
2022/01/11 06:18:25;;;;;;;13.93;11.67;;;1.70;99.90;;;;;;5025698;28;20048;-78
2022/01/11 06:20:50;;;;;;;21.27;9.37;;;1.70;99.90;;;;;;5043076;28;20526;-78
2022/01/11 06:23:16;;;;;;;9.33;8.50;;;1.70;99.90;;;;;;5044183;28;20057;-78
2022/01/11 06:25:41;;;;;;;23.23;10.20;;;1.60;99.90;;;;;;5043913;28;20313;-78
2022/01/11 06:28:07;;;;;;;14.77;9.70;;;1.60;99.90;;;;;;5059981;28;20048;-78
2022/01/11 06:30:33;;;;;;;19.10;12.80;;;1.60;99.90;;;;;;5050171;28;20041;-79
2022/01/11 06:32:58;;;;;;;13.53;10.93;;;1.60;99.90;;;;;;5043276;28;20040;-78
2022/01/11 06:35:24;;;;;;;12.63;10.13;;;1.60;99.90;;;;;;5025105;28;20048;-78
2022/01/11 06:37:50;;;;;;;12.17;8.73;;;1.60;99.90;;;;;;5042347;28;20029;-78
2022/01/11 06:40:18;;;;;;;9.97;8.87;;;1.60;99.90;;;;;;5052801;28;20402;-79
2022/01/11 06:42:45;;;;;;;15.90;9.87;;;1.60;99.90;;;;;;5044068;28;20486;-79
2022/01/11 06:45:11;;;;;;;20.20;13.07;;;1.60;99.90;;;;;;5030348;28;20514;-79
2022/01/11 06:47:38;;;;;;;14.20;9.20;;;1.60;99.90;;;;;;5038004;28;20372;-79
2022/01/11 06:50:04;;;;;;;10.33;8.93;;;1.60;99.90;;;;;;5043181;28;20052;-79
2022/01/11 06:52:29;;;;;;;12.93;9.67;;;1.60;99.90;;;;;;5041739;28;20045;-79
2022/01/11 06:54:55;;;;;;;17.87;13.30;;;1.60;99.90;;;;;;5042852;28;20717;-79
2022/01/11 06:57:20;;;;;;;12.47;8.47;;;1.70;99.90;;;;;;5041661;28;20052;-79
2022/01/11 06:59:46;;;;;;;25.83;10.87;;;1.70;99.90;;;;;;5048328;28;20058;-79
2022/01/11 07:02:12;;;;;;;10.63;9.50;;;1.70;99.90;;;;;;5063211;28;21235;-79
2022/01/11 07:04:37;;;;;;;12.97;10.50;;;1.70;99.90;;;;;;5062647;28;20059;-79
2022/01/11 07:07:07;;;;;;;12.13;8.80;;;1.70;99.90;;;;;;5058710;28;20040;-79
2022/01/11 07:09:34;;;;;;;20.00;13.80;;;1.70;99.90;;;;;;5042507;28;20045;-77
2022/01/11 07:11:59;;;;;;;17.03;12.90;;;1.70;99.90;;;;;;5042647;28;20641;-77
2022/01/11 07:14:25;;;;;;;9.60;8.67;;;1.70;99.90;;;;;;5042191;28;20044;-77
2022/01/11 07:16:51;;;;;;;18.33;11.17;;;1.70;99.90;;;;;;5043014;28;20041;-77
2022/01/11 07:19:20;;;;;;;9.70;8.50;;;1.70;99.90;;;;;;5042866;28;20049;-77
2022/01/11 07:21:46;;;;;;;9.97;8.57;;;1.70;99.90;;;;;;5024711;28;20041;-77
2022/01/11 07:24:13;;;;;;;15.30;10.07;;;1.70;99.90;;;;;;5043049;28;20210;-76
2022/01/11 07:26:39;;;;;;;11.73;10.60;;;1.70;99.90;;;;;;5043216;28;20175;-77
2022/01/11 07:29:05;;;;;;;19.30;11.07;;;1.70;99.90;;;;;;5042400;28;20577;-76
2022/01/11 07:31:32;;;;;;;10.60;9.40;;;1.70;99.90;;;;;;5042007;28;20080;-77
2022/01/11 07:33:58;;;;;;;18.97;11.03;;;1.80;99.90;;;;;;5046697;28;20044;-76
2022/01/11 07:36:24;;;;;;;21.20;12.73;;;1.70;99.90;;;;;;5046295;28;20119;-76
2022/01/11 07:38:51;;;;;;;12.37;10.17;;;1.80;99.90;;;;;;5041968;28;20183;-77
2022/01/11 07:41:17;;;;;;;21.87;12.73;;;1.80;99.90;;;;;;5059867;28;20156;-77
2022/01/11 07:43:43;;;;;;;11.37;10.23;;;1.80;99.90;;;;;;5042836;28;20048;-77
2022/01/11 07:46:09;;;;;;;11.73;9.67;;;1.80;99.90;;;;;;5024527;28;20045;-77
2022/01/11 07:48:34;;;;;;;14.03;12.60;;;1.80;99.90;;;;;;5040629;28;20407;-76
2022/01/11 07:51:00;;;;;;;11.73;9.87;;;1.80;99.90;;;;;;5039591;28;20040;-77
2022/01/11 07:53:25;;;;;;;15.07;9.83;;;1.70;99.90;;;;;;5041665;28;20037;-77
2022/01/11 07:55:51;;;;;;;12.23;10.97;;;1.70;99.90;;;;;;5041670;28;20124;-77
2022/01/11 07:58:16;;;;;;;15.73;11.47;;;1.70;99.90;;;;;;5040897;28;20099;-77
2022/01/11 08:00:42;;;;;;;13.67;9.77;;;1.70;99.90;;;;;;5042149;28;20037;-77
2022/01/11 08:03:08;;;;;;;11.67;9.63;;;1.70;99.90;;;;;;5041674;28;20049;-77
2022/01/11 08:05:34;;;;;;;13.17;10.43;;;1.80;99.90;;;;;;5040140;28;20850;-78
2022/01/11 08:08:00;;;;;;;18.93;11.30;;;1.80;99.90;;;;;;5027860;28;20076;-79
2022/01/11 08:10:26;;;;;;;14.83;11.60;;;1.80;99.90;;;;;;5023000;28;20103;-78
2022/01/11 08:12:52;;;;;;;13.03;11.53;;;1.80;99.90;;;;;;5034213;28;20064;-78
2022/01/11 08:15:17;;;;;;;23.80;11.40;;;1.80;99.90;;;;;;5035007;28;20037;-78
2022/01/11 08:17:43;;;;;;;14.23;11.57;;;1.80;99.90;;;;;;5023921;28;20426;-78
2022/01/11 08:20:09;;;;;;;14.60;12.33;;;1.80;99.90;;;;;;5040354;28;20041;-78
2022/01/11 08:22:35;;;;;;;16.23;10.87;;;1.80;99.90;;;;;;5042070;28;20041;-78
2022/01/11 08:25:01;;;;;;;11.73;9.87;;;1.80;99.90;;;;;;5046367;28;20060;-81
2022/01/11 08:27:26;;;;;;;18.60;10.37;;;1.80;99.90;;;;;;5009572;28;20065;-82
2022/01/11 08:29:52;;;;;;;7.17;6.57;;;1.80;99.90;;;;;;5040473;28;20471;-82
2022/01/11 08:32:18;;;;;;;15.10;11.07;;;1.80;99.90;;;;;;5030922;28;20045;-81
2022/01/11 08:34:43;;;;;;;8.87;7.97;;;1.80;99.90;;;;;;5040172;28;20072;-83
2022/01/11 08:37:09;;;;;;;19.17;12.87;;;1.80;99.90;;;;;;5034422;28;20683;-80
2022/01/11 08:39:36;;;;;;;9.07;8.17;;;1.80;99.90;;;;;;5040161;28;20037;-83
2022/01/11 08:42:03;;;;;;;14.53;10.80;;;1.70;99.90;;;;;;5019873;28;20069;-83
2022/01/11 08:44:28;;;;;;;13.03;11.23;;;1.80;99.90;;;;;;5021897;28;20491;-84
2022/01/11 08:46:56;;;;;;;14.17;11.43;;;1.80;99.90;;;;;;5039614;28;20051;-83
2022/01/11 08:49:22;;;;;;;12.47;11.17;;;1.80;99.90;;;;;;5021513;28;20045;-85
2022/01/11 08:51:48;;;;;;;12.07;9.67;;;1.80;99.90;;;;;;5037421;28;20052;-80
2022/01/11 08:54:14;;;;;;;15.37;12.83;;;1.80;99.90;;;;;;5024765;28;20062;-82
2022/01/11 08:56:40;;;;;;;17.40;10.27;;;1.80;99.90;;;;;;5039879;28;20404;-80
2022/01/11 08:59:06;;;;;;;19.97;11.23;;;1.80;99.90;;;;;;5043576;28;20132;-82
2022/01/11 09:01:34;;;;;;;14.57;9.90;;;1.80;99.90;;;;;;5025580;28;20576;-79
2022/01/11 09:04:00;;;;;;;14.03;11.53;;;1.80;99.90;;;;;;5020823;28;20049;-80
2022/01/11 09:06:25;;;;;;;11.83;9.67;;;1.80;99.90;;;;;;5019393;28;20037;-81
2022/01/11 09:08:51;;;;;;;11.00;9.23;;;1.80;99.90;;;;;;5020278;28;20044;-82
2022/01/11 09:11:17;;;;;;;16.37;14.60;;;1.80;99.90;;;;;;5022957;28;20498;-78
2022/01/11 09:13:42;;;;;;;12.10;11.00;;;1.80;99.90;;;;;;5021212;28;20049;-78
2022/01/11 09:16:08;;;;;;;17.33;13.03;;;1.80;99.90;;;;;;5019664;28;20045;-78
2022/01/11 09:18:34;;;;;;;14.20;12.70;;;1.80;99.90;;;;;;5026712;28;20048;-78
2022/01/11 09:21:03;;;;;;;32.37;14.80;;;1.80;99.90;;;;;;5018634;28;20041;-78
2022/01/11 09:23:29;;;;;;;20.53;13.63;;;1.80;99.90;;;;;;5018447;28;20241;-78
2022/01/11 09:25:55;;;;;;;21.47;13.30;;;1.80;99.90;;;;;;5020489;28;20187;-78
2022/01/11 09:28:21;;;;;;;16.47;14.83;;;1.80;99.90;;;;;;5023983;28;20521;-78
2022/01/11 09:30:47;;;;;;;14.93;11.53;;;1.80;99.90;;;;;;5020392;28;20055;-78
2022/01/11 09:33:13;;;;;;;23.00;15.77;;;1.80;99.90;;;;;;5020847;28;20045;-78
2022/01/11 09:35:39;;;;;;;12.97;11.37;;;1.80;99.90;;;;;;5019040;28;20180;-78
2022/01/11 09:38:04;;;;;;;13.87;11.37;;;1.80;99.90;;;;;;5020623;28;20045;-78
2022/01/11 09:40:30;;;;;;;19.87;8.60;;;1.80;99.90;;;;;;5020964;28;20038;-78
2022/01/11 09:42:55;;;;;;;13.40;11.13;;;1.80;99.90;;;;;;5024735;28;20044;-78
2022/01/11 09:45:21;;;;;;;23.83;13.67;;;1.80;99.90;;;;;;5021521;28;20051;-78
2022/01/11 09:47:47;;;;;;;14.33;12.50;;;1.80;99.90;;;;;;5019840;28;20041;-78
2022/01/11 09:50:16;;;;;;;17.73;12.83;;;1.80;99.90;;;;;;5019316;28;20054;-79
2022/01/11 09:52:43;;;;;;;16.63;14.93;;;1.80;99.90;;;;;;5018976;28;20060;-78
2022/01/11 09:55:11;;;;;;;23.40;12.70;;;1.80;99.90;;;;;;5020427;28;20093;-78
2022/01/11 09:57:38;;;;;;;22.77;11.57;;;1.90;99.90;;;;;;5018919;28;20280;-78
2022/01/11 10:00:07;;;;;;;17.80;16.00;;;1.90;99.90;;;;;;5020563;28;20057;-78
2022/01/11 10:02:32;;;;;;;20.57;13.33;;;1.90;99.90;;;;;;5036494;28;20465;-79
2022/01/11 10:05:01;;;;;;;25.33;14.43;;;1.90;99.90;;;;;;5043262;28;20045;-84
2022/01/11 10:07:40;;;;;;;21.00;12.30;;;1.90;99.90;;;;;;5028779;28;20045;-81
2022/01/11 10:10:20;;;;;;;12.63;11.43;;;1.90;99.90;;;;;;5047808;28;20540;-83
2022/01/11 10:13:30;;;;;;;22.30;14.30;;;1.90;99.90;;;;;;5044053;28;20049;-88
2022/01/11 10:15:55;;;;;;;23.17;12.53;;;2.00;99.90;;;;;;5020414;28;20499;-86
2022/01/11 10:18:37;;;;;;;18.10;12.87;;;2.00;99.90;;;;;;5026065;28;20090;-85
2022/01/11 10:21:50;;;;;;;16.95;15.15;;;2.00;99.90;;;;;;5025217;28;20053;-86
2022/01/11 10:24:32;;;;;;;16.58;10.52;;;2.00;99.90;;;;;;5034321;28;20057;-82
2022/01/11 10:27:00;;;;;;;24.85;16.08;;;2.00;99.90;;;;;;5040115;28;20044;-82
2022/01/11 10:29:28;;;;;;;17.53;13.40;;;2.00;99.90;;;;;;5043771;28;20387;-82
2022/01/11 10:31:55;;;;;;;28.83;15.03;;;2.00;99.90;;;;;;5046121;28;20068;-82
2022/01/11 10:34:30;;;;;;;16.87;13.43;;;2.00;99.90;;;;;;5044391;28;20056;-82
2022/01/11 10:36:56;;;;;;;17.27;13.53;;;2.00;99.90;;;;;;5041661;28;20395;-82
2022/01/11 10:39:48;;;;;;;18.30;13.50;;;2.00;99.90;;;;;;5040106;28;20135;-77
2022/01/11 10:42:33;;;;;;;14.53;13.17;;;2.10;99.90;;;;;;5038969;28;20053;-77
2022/01/11 10:45:01;;;;;;;13.97;12.47;;;2.10;99.90;;;;;;5042274;28;20072;-77
2022/01/11 10:47:34;;;;;;;18.63;13.47;;;2.20;99.90;;;;;;5031110;28;20518;-77
2022/01/11 10:50:28;;;;;;;24.93;12.80;;;2.20;99.90;;;;;;5044828;28;20574;-77
2022/01/11 10:52:55;;;;;;;15.47;13.33;;;2.20;99.90;;;;;;5034260;28;20396;-77
2022/01/11 10:55:23;;;;;;;16.13;11.33;;;2.20;99.90;;;;;;5040924;28;20128;-77
2022/01/11 10:58:01;;;;;;;14.47;12.63;;;2.20;99.90;;;;;;5041689;28;20055;-77
2022/01/11 11:00:35;;;;;;;22.60;11.93;;;2.30;99.90;;;;;;5041451;28;20041;-77
2022/01/11 11:03:18;;;;;;;15.80;12.60;;;2.30;99.90;;;;;;5022730;28;20037;-77
2022/01/11 11:05:56;;;;;;;28.60;12.27;;;2.30;99.90;;;;;;5039650;28;20073;-77
2022/01/11 11:08:34;;;;;;;27.73;13.07;;;2.30;99.90;;;;;;5042542;28;20048;-77
2022/01/11 11:11:06;;;;;;;27.17;13.33;;;2.30;99.90;;;;;;5041285;28;20499;-77
2022/01/11 11:13:35;;;;;;;15.52;12.40;;;2.30;99.90;;;;;;5038903;28;20175;-77
2022/01/11 11:16:26;;;;;;;16.30;11.53;;;2.40;99.90;;;;;;5040041;28;20116;-76
2022/01/11 11:18:54;;;;;;;12.53;11.20;;;2.40;99.90;;;;;;5026722;28;20048;-80
2022/01/11 11:21:23;;;;;;;18.20;11.23;;;2.40;99.90;;;;;;5038477;28;20045;-76
2022/01/11 11:23:55;;;;;;;20.57;11.90;;;2.40;99.90;;;;;;5039292;28;20040;-76
2022/01/11 11:26:27;;;;;;;12.02;10.90;;;2.40;99.90;;;;;;5038191;28;20049;-76
2022/01/11 11:28:53;;;;;;;11.85;10.73;;;2.50;99.90;;;;;;5030076;28;20046;-75
2022/01/11 11:31:21;;;;;;;18.67;10.40;;;2.50;99.90;;;;;;5040125;28;20125;-75
2022/01/11 11:33:47;;;;;;;24.43;14.73;;;2.50;99.90;;;;;;5039605;28;20044;-76
2022/01/11 11:36:14;;;;;;;14.70;11.03;;;2.60;99.90;;;;;;5005074;28;20083;-74
2022/01/11 11:38:56;;;;;;;12.60;10.47;;;2.50;99.90;;;;;;5039944;28;20063;-75
2022/01/11 11:41:23;;;;;;;19.23;15.40;;;2.60;99.90;;;;;;5039203;28;20405;-75
2022/01/11 11:44:05;;;;;;;23.13;12.93;;;2.60;99.90;;;;;;5039692;28;20252;-75
2022/01/11 11:46:45;;;;;;;13.13;11.20;;;2.60;99.90;;;;;;5039795;28;20048;-75
2022/01/11 11:49:15;;;;;;;30.07;12.70;;;2.60;99.90;;;;;;5040939;28;20128;-75
2022/01/11 11:51:43;;;;;;;10.70;9.70;;;2.70;99.90;;;;;;5008030;28;20082;-75
2022/01/11 11:54:14;;;;;;;20.03;11.90;;;2.70;99.90;;;;;;5022432;28;20045;-75
2022/01/11 11:56:44;;;;;;;13.70;10.83;;;2.70;99.90;;;;;;5040500;28;20051;-75
2022/01/11 11:59:09;;;;;;;13.53;11.83;;;2.70;99.90;;;;;;5042371;28;20494;-75
2022/01/11 12:01:42;;;;;;;26.67;12.83;;;2.70;99.90;;;;;;5040088;28;20139;-75
2022/01/11 12:04:36;;;;;;;14.10;10.55;;;2.80;99.90;;;;;;5039349;28;20052;-75
2022/01/11 12:07:38;;;;;;;13.90;12.57;;;2.80;99.90;;;;;;5038743;28;20060;-75
2022/01/11 12:10:08;;;;;;;23.23;12.27;;;2.80;99.90;;;;;;5030992;28;20057;-75
2022/01/11 12:12:53;;;;;;;12.60;9.57;;;2.80;99.90;;;;;;5022235;28;20040;-75
2022/01/11 12:15:21;;;;;;;15.87;13.77;;;2.90;99.90;;;;;;5039848;28;20053;-75
2022/01/11 12:17:48;;;;;;;17.70;13.13;;;2.90;99.90;;;;;;5021909;28;20072;-76
2022/01/11 12:20:47;;;;;;;14.47;11.27;;;2.90;99.90;;;;;;5039681;28;20041;-75
2022/01/11 12:23:36;;;;;;;13.77;11.47;;;2.90;99.90;;;;;;5022674;28;20067;-75
2022/01/11 12:26:20;;;;;;;11.43;10.17;;;2.90;99.90;;;;;;5022466;28;20040;-74
2022/01/11 12:29:10;;;;;;;15.60;9.30;;;3.00;99.90;;;;;;5022337;28;20088;-75
2022/01/11 12:31:45;;;;;;;13.70;10.57;;;3.00;99.90;;;;;;4998709;28;20060;-75
2022/01/11 12:34:12;;;;;;;14.53;9.97;;;3.00;99.90;;;;;;5019751;28;20073;-75
2022/01/11 12:37:00;;;;;;;14.60;10.50;;;3.00;99.90;;;;;;5018374;28;20040;-75
2022/01/11 12:39:29;;;;;;;10.87;9.93;;;3.00;99.90;;;;;;5001791;28;20042;-75
2022/01/11 12:41:56;;;;;;;14.90;12.50;;;3.10;99.90;;;;;;5021090;28;20045;-75
2022/01/11 12:47:02;;;;;;;28.17;9.43;;;3.10;99.90;;;;;;5039359;28;20056;-75
2022/01/11 12:49:30;;;;;;;10.38;8.77;;;3.10;99.90;;;;;;5043321;28;20072;-75
2022/01/11 12:52:08;;;;;;;12.10;7.80;;;3.20;99.90;;;;;;5038965;28;20041;-75
2022/01/11 12:54:36;;;;;;;6.97;6.30;;;3.20;99.90;;;;;;5032772;28;20048;-75
2022/01/11 12:57:06;;;;;;;11.97;9.03;;;3.20;99.90;;;;;;5028927;28;20154;-74
2022/01/11 12:59:35;;;;;;;12.67;9.27;;;3.20;99.90;;;;;;5038942;28;20049;-75